createdAt,value
2019-06-20T00:01:37.350Z,22.16
2019-06-20T00:04:04.381Z,22.13
2019-06-20T00:06:31.208Z,22.32
2019-06-20T00:08:57.953Z,22.53
2019-06-20T00:11:24.648Z,22.48
2019-06-20T00:13:51.372Z,22.37
2019-06-20T00:16:18.074Z,22.48
2019-06-20T00:18:45.123Z,22.39
2019-06-20T00:21:12.179Z,22.31
2019-06-20T00:23:38.895Z,22.12
2019-06-20T00:26:05.600Z,22.00
2019-06-20T00:28:32.367Z,22.08
2019-06-20T00:30:59.421Z,22.17
2019-06-20T00:33:26.160Z,22.16
2019-06-20T00:35:52.863Z,22.22
2019-06-20T00:38:19.553Z,22.17
2019-06-20T00:40:46.235Z,21.94
2019-06-20T00:43:17.413Z,21.89
2019-06-20T00:45:41.555Z,22.03
2019-06-20T00:48:08.406Z,21.81
2019-06-20T00:50:35.322Z,21.78
2019-06-20T00:53:02.019Z,21.67
2019-06-20T00:55:28.771Z,21.74
2019-06-20T00:57:55.489Z,21.83
2019-06-20T01:00:22.427Z,21.75
2019-06-20T01:02:51.715Z,21.78
2019-06-20T01:05:18.556Z,21.79
2019-06-20T01:07:45.266Z,21.77
2019-06-20T01:10:12.029Z,21.76
2019-06-20T01:12:38.734Z,21.68
2019-06-20T01:15:05.707Z,21.59
2019-06-20T01:17:32.781Z,21.53
2019-06-20T01:20:00.595Z,21.54
2019-06-20T01:22:27.622Z,21.50
2019-06-20T01:24:54.332Z,21.47
2019-06-20T01:27:21.353Z,21.46
2019-06-20T01:29:48.196Z,21.50
2019-06-20T01:32:14.933Z,21.46
2019-06-20T01:34:41.690Z,21.31
2019-06-20T01:37:08.549Z,21.30
2019-06-20T01:39:35.302Z,21.25
2019-06-20T01:42:02.012Z,21.29
2019-06-20T01:44:28.731Z,21.29
2019-06-20T01:46:55.438Z,21.40
2019-06-20T01:49:22.159Z,21.28
2019-06-20T01:51:49.170Z,21.29
2019-06-20T01:54:15.868Z,21.23
2019-06-20T01:56:42.560Z,21.26
2019-06-20T01:59:09.567Z,21.30
2019-06-20T02:01:36.267Z,21.18
2019-06-20T02:04:03.010Z,21.10
2019-06-20T02:06:29.655Z,21.24
2019-06-20T02:08:56.381Z,21.31
2019-06-20T02:11:23.067Z,21.35
2019-06-20T02:14:03.558Z,21.37
2019-06-20T02:16:18.386Z,21.31
2019-06-20T02:18:45.097Z,21.23
2019-06-20T02:21:11.801Z,21.16
2019-06-20T02:23:38.542Z,21.17
2019-06-20T02:26:05.252Z,21.04
2019-06-20T02:28:31.961Z,21.06
2019-06-20T02:30:58.663Z,21.14
2019-06-20T02:33:25.371Z,21.03
2019-06-20T02:35:52.082Z,20.93
2019-06-20T02:38:19.163Z,21.01
2019-06-20T02:40:45.869Z,20.98
2019-06-20T02:43:12.889Z,20.97
2019-06-20T02:45:40.187Z,20.90
2019-06-20T02:48:06.901Z,20.77
2019-06-20T02:50:33.585Z,20.70
2019-06-20T02:53:00.307Z,20.67
2019-06-20T02:55:27.016Z,20.85
2019-06-20T02:57:53.710Z,20.73
2019-06-20T03:00:34.029Z,20.81
2019-06-20T03:03:00.788Z,20.68
2019-06-20T03:05:27.441Z,20.69
2019-06-20T03:07:54.129Z,20.63
2019-06-20T03:10:20.865Z,20.70
2019-06-20T03:12:47.533Z,20.73
2019-06-20T03:15:14.537Z,20.70
2019-06-20T03:17:41.237Z,20.59
2019-06-20T03:20:10.070Z,20.45
2019-06-20T03:22:36.719Z,20.46
2019-06-20T03:25:03.909Z,20.29
2019-06-20T03:27:31.066Z,20.16
2019-06-20T03:29:57.777Z,20.32
2019-06-20T03:32:27.431Z,20.30
2019-06-20T03:34:54.222Z,20.01
2019-06-20T03:37:20.925Z,19.96
2019-06-20T03:39:47.627Z,20.09
2019-06-20T03:42:14.313Z,20.06
2019-06-20T03:44:40.983Z,20.22
2019-06-20T03:47:07.803Z,20.33
2019-06-20T03:49:34.471Z,20.30
2019-06-20T03:52:01.436Z,20.28
2019-06-20T03:54:28.146Z,20.19
2019-06-20T03:56:54.826Z,20.13
2019-06-20T03:59:21.526Z,20.10
2019-06-20T04:01:49.206Z,20.15
2019-06-20T04:04:16.086Z,20.00
2019-06-20T04:06:43.464Z,20.17
2019-06-20T04:09:10.181Z,20.04
2019-06-20T04:11:37.228Z,19.89
2019-06-20T04:14:03.936Z,20.05
2019-06-20T04:16:30.645Z,20.07
2019-06-20T04:18:57.361Z,20.18
2019-06-20T04:21:24.049Z,20.30
2019-06-20T04:23:50.734Z,20.20
2019-06-20T04:26:17.681Z,20.27
2019-06-20T04:28:44.381Z,20.38
2019-06-20T04:31:11.090Z,20.47
2019-06-20T04:33:37.780Z,20.47
2019-06-20T04:36:04.878Z,20.36
2019-06-20T04:38:31.886Z,20.46
2019-06-20T04:40:58.616Z,20.53
2019-06-20T04:43:25.294Z,20.39
2019-06-20T04:46:04.119Z,20.47
2019-06-20T04:48:30.819Z,20.53
2019-06-20T04:50:57.511Z,20.39
2019-06-20T04:53:24.212Z,20.45
2019-06-20T04:55:50.894Z,20.44
2019-06-20T04:58:17.614Z,20.55
2019-06-20T05:00:44.332Z,20.40
2019-06-20T05:03:11.082Z,20.30
2019-06-20T05:05:37.766Z,20.28
2019-06-20T05:08:04.561Z,20.43
2019-06-20T05:10:31.270Z,20.50
2019-06-20T05:12:57.976Z,20.44
2019-06-20T05:15:24.685Z,20.34
2019-06-20T05:17:51.767Z,20.39
2019-06-20T05:20:18.474Z,20.47
2019-06-20T05:22:45.493Z,20.57
2019-06-20T05:25:14.412Z,20.63
2019-06-20T05:27:41.128Z,20.69
2019-06-20T05:30:09.013Z,20.78
2019-06-20T05:32:35.735Z,20.72
2019-06-20T05:35:03.183Z,20.72
2019-06-20T05:37:30.135Z,20.77
2019-06-20T05:39:56.899Z,20.72
2019-06-20T05:42:23.629Z,20.54
2019-06-20T05:44:50.347Z,20.53
2019-06-20T05:47:17.042Z,20.61
2019-06-20T05:49:43.877Z,20.50
2019-06-20T05:52:10.582Z,20.47
2019-06-20T05:54:37.610Z,20.54
2019-06-20T05:57:04.763Z,20.65
2019-06-20T05:59:31.935Z,20.60
2019-06-20T06:01:58.674Z,20.74
2019-06-20T06:04:26.406Z,20.81
2019-06-20T06:06:53.228Z,20.76
2019-06-20T06:09:19.973Z,20.77
2019-06-20T06:11:46.680Z,20.75
2019-06-20T06:14:13.888Z,20.83
2019-06-20T06:16:44.232Z,20.68
2019-06-20T06:19:11.680Z,20.80
2019-06-20T06:21:41.407Z,20.78
2019-06-20T06:24:11.388Z,20.82
2019-06-20T06:26:38.113Z,20.97
2019-06-20T06:29:04.906Z,21.12
2019-06-20T06:31:31.593Z,21.09
2019-06-20T06:33:58.276Z,21.23
2019-06-20T06:36:24.988Z,21.36
2019-06-20T06:38:51.671Z,21.38
2019-06-20T06:41:18.762Z,21.54
2019-06-20T06:43:45.464Z,21.66
2019-06-20T06:46:12.159Z,21.70
2019-06-20T06:48:38.861Z,21.76
2019-06-20T06:51:05.595Z,21.63
2019-06-20T06:53:32.318Z,21.80
2019-06-20T06:55:59.018Z,21.97
2019-06-20T06:58:26.112Z,22.01
2019-06-20T07:00:52.841Z,22.07
2019-06-20T07:03:19.923Z,22.24
2019-06-20T07:05:46.641Z,22.43
2019-06-20T07:08:13.706Z,22.63
2019-06-20T07:10:40.788Z,22.72
2019-06-20T07:13:07.543Z,22.77
2019-06-20T07:15:34.373Z,22.78
2019-06-20T07:18:01.070Z,22.97
2019-06-20T07:20:27.842Z,22.96
2019-06-20T07:22:54.657Z,22.93
2019-06-20T07:25:21.974Z,23.05
2019-06-20T07:27:48.691Z,23.00
2019-06-20T07:30:15.424Z,23.03
2019-06-20T07:32:42.112Z,23.22
2019-06-20T07:35:08.904Z,23.23
2019-06-20T07:37:35.914Z,23.24
2019-06-20T07:40:03.814Z,23.42
2019-06-20T07:42:30.562Z,23.71
2019-06-20T07:44:57.237Z,23.67
2019-06-20T07:47:23.948Z,23.65
2019-06-20T07:49:50.647Z,23.48
2019-06-20T07:52:17.338Z,23.38
2019-06-20T07:54:44.332Z,23.35
2019-06-20T07:57:11.450Z,23.23
2019-06-20T07:59:38.268Z,23.53
2019-06-20T08:02:04.989Z,23.90
2019-06-20T08:04:31.801Z,23.98
2019-06-20T08:06:58.624Z,23.98
2019-06-20T08:09:43.662Z,23.89
2019-06-20T08:11:54.070Z,23.80
2019-06-20T08:14:20.846Z,23.74
2019-06-20T08:16:49.069Z,23.75
2019-06-20T08:19:15.811Z,23.53
2019-06-20T08:21:44.210Z,23.60
2019-06-20T08:24:11.139Z,23.58
2019-06-20T08:26:38.334Z,23.59
2019-06-20T08:29:18.680Z,23.68
2019-06-20T08:31:34.141Z,23.50
2019-06-20T08:34:02.163Z,23.79
2019-06-20T08:36:29.158Z,24.11
2019-06-20T08:38:56.930Z,24.54
2019-06-20T08:41:24.276Z,24.82
2019-06-20T08:43:53.568Z,24.79
2019-06-20T08:46:20.332Z,24.73
2019-06-20T08:48:47.650Z,24.66
2019-06-20T08:51:14.818Z,24.64
2019-06-20T08:53:41.761Z,24.61
2019-06-20T08:56:08.585Z,24.59
2019-06-20T08:58:35.297Z,24.73
2019-06-20T09:03:30.664Z,24.71
2019-06-20T09:05:58.241Z,24.82
2019-06-20T09:08:25.299Z,24.53
2019-06-20T09:10:54.104Z,24.52
2019-06-20T09:13:21.088Z,24.59
2019-06-20T09:15:47.837Z,24.46
2019-06-20T09:18:14.577Z,24.45
2019-06-20T09:20:41.702Z,24.56
2019-06-20T09:23:08.464Z,24.67
2019-06-20T09:25:35.253Z,24.59
2019-06-20T09:28:02.686Z,24.58
2019-06-20T09:30:29.501Z,24.56
2019-06-20T09:32:56.265Z,24.49
2019-06-20T09:35:22.994Z,24.49
2019-06-20T09:37:51.744Z,24.51
2019-06-20T09:40:19.907Z,24.61
2019-06-20T09:42:46.669Z,24.68
2019-06-20T09:45:16.983Z,24.64
2019-06-20T09:47:43.734Z,24.56
2019-06-20T09:50:10.617Z,24.53
2019-06-20T09:52:37.347Z,24.65
2019-06-20T09:55:04.199Z,24.65
2019-06-20T09:57:30.933Z,24.74
2019-06-20T10:00:07.687Z,24.94
2019-06-20T10:02:27.032Z,25.15
2019-06-20T10:04:54.486Z,25.30
2019-06-20T10:07:21.334Z,25.39
2019-06-20T10:09:49.829Z,25.51
2019-06-20T10:12:16.644Z,25.66
2019-06-20T10:14:43.349Z,25.95
2019-06-20T10:17:10.038Z,25.87
2019-06-20T10:19:36.746Z,25.62
2019-06-20T10:22:03.561Z,25.74
2019-06-20T10:24:30.377Z,25.99
2019-06-20T10:26:58.001Z,26.27
2019-06-20T10:29:24.884Z,26.29
2019-06-20T10:31:53.175Z,26.33
2019-06-20T10:34:19.949Z,26.35
2019-06-20T10:36:48.041Z,26.00
2019-06-20T10:39:14.901Z,25.60
2019-06-20T10:41:41.995Z,25.40
2019-06-20T10:44:08.683Z,25.26
2019-06-20T10:46:35.415Z,25.37
2019-06-20T10:49:02.541Z,25.33
2019-06-20T10:51:49.615Z,25.14
2019-06-20T10:54:16.585Z,24.52
2019-06-20T10:56:45.843Z,24.32
2019-06-20T10:59:11.979Z,23.94
2019-06-20T11:01:39.829Z,23.74
2019-06-20T11:04:07.364Z,23.73
2019-06-20T11:06:34.146Z,23.70
2019-06-20T11:09:01.298Z,23.66
2019-06-20T11:11:28.042Z,23.71
2019-06-20T11:13:56.669Z,23.98
2019-06-20T11:16:23.671Z,24.06
2019-06-20T11:18:50.453Z,24.17
2019-06-20T11:21:17.236Z,24.10
2019-06-20T11:23:45.221Z,24.13
2019-06-20T11:26:12.029Z,24.04
2019-06-20T11:28:39.296Z,24.23
2019-06-20T11:31:06.817Z,24.54
2019-06-20T11:33:36.485Z,24.96
2019-06-20T11:36:03.492Z,25.24
2019-06-20T11:38:30.223Z,25.36
2019-06-20T11:40:57.082Z,25.39
2019-06-20T11:43:23.831Z,25.44
2019-06-20T11:45:50.560Z,25.70
2019-06-20T11:48:17.316Z,25.97
2019-06-20T11:50:44.511Z,26.42
2019-06-20T11:53:11.304Z,26.71
2019-06-20T11:55:38.011Z,26.91
2019-06-20T11:58:04.737Z,27.03
2019-06-20T12:00:34.136Z,27.16
2019-06-20T12:03:01.273Z,27.31
2019-06-20T12:05:28.027Z,27.22
2019-06-20T12:07:54.892Z,27.31
2019-06-20T12:10:21.942Z,27.41
2019-06-20T12:12:59.562Z,27.53
2019-06-20T12:15:26.647Z,27.21
2019-06-20T12:17:53.523Z,26.76
2019-06-20T12:20:20.270Z,26.86
2019-06-20T12:22:46.969Z,26.82
2019-06-20T12:25:15.856Z,26.56
2019-06-20T12:27:43.115Z,26.35
2019-06-20T12:30:10.163Z,26.28
2019-06-20T12:32:36.915Z,26.34
2019-06-20T12:35:03.745Z,26.37
2019-06-20T12:37:30.825Z,26.32
2019-06-20T12:39:57.531Z,26.30
2019-06-20T12:42:27.503Z,26.23
2019-06-20T12:44:54.299Z,26.27
2019-06-20T12:47:22.938Z,26.56
2019-06-20T12:49:50.701Z,26.91
2019-06-20T12:52:17.953Z,27.23
2019-06-20T12:54:44.941Z,27.44
2019-06-20T12:57:12.058Z,27.29
2019-06-20T12:59:40.719Z,27.17
2019-06-20T13:02:09.952Z,26.92
2019-06-20T13:04:38.290Z,26.60
2019-06-20T13:07:05.425Z,26.76
2019-06-20T13:09:32.306Z,26.87
2019-06-20T13:11:59.481Z,27.28
2019-06-20T13:14:26.219Z,27.76
2019-06-20T13:16:53.171Z,28.16
2019-06-20T13:19:20.019Z,28.42
2019-06-20T13:21:48.599Z,28.75
2019-06-20T13:24:15.440Z,28.83
2019-06-20T13:26:42.490Z,29.10
2019-06-20T13:29:09.257Z,29.36
2019-06-20T13:31:51.849Z,29.41
2019-06-20T13:34:05.300Z,29.41
2019-06-20T13:36:32.043Z,29.27
2019-06-20T13:38:58.807Z,28.84
2019-06-20T13:41:25.851Z,28.32
2019-06-20T13:43:52.646Z,28.16
2019-06-20T13:46:19.736Z,28.18
2019-06-20T13:48:47.506Z,28.16
2019-06-20T13:51:14.388Z,27.99
2019-06-20T13:53:42.617Z,28.51
2019-06-20T13:56:09.497Z,28.74
2019-06-20T13:58:37.177Z,28.70
2019-06-20T14:01:03.907Z,28.64
2019-06-20T14:03:30.678Z,28.60
2019-06-20T14:05:57.461Z,28.32
2019-06-20T14:08:24.994Z,28.06
2019-06-20T14:10:52.271Z,27.51
2019-06-20T14:15:59.465Z,27.08
2019-06-20T14:18:27.675Z,27.26
2019-06-20T14:20:55.262Z,27.66
2019-06-20T14:23:22.124Z,27.91
2019-06-20T14:25:49.172Z,27.98
2019-06-20T14:28:15.992Z,27.92
2019-06-20T14:30:44.469Z,27.71
2019-06-20T14:33:11.532Z,27.66
2019-06-20T14:35:38.231Z,27.49
2019-06-20T14:38:05.297Z,27.26
2019-06-20T14:40:32.030Z,27.06
2019-06-20T14:42:58.737Z,26.90
2019-06-20T14:45:28.299Z,26.59
2019-06-20T14:47:55.329Z,26.51
2019-06-20T14:50:22.543Z,26.42
2019-06-20T14:52:50.015Z,25.98
2019-06-20T14:55:18.299Z,25.57
2019-06-20T14:57:47.007Z,25.38
2019-06-20T15:00:16.019Z,25.49
2019-06-20T15:02:45.838Z,26.11
2019-06-20T15:05:13.706Z,26.87
2019-06-20T15:07:40.418Z,27.41
2019-06-20T15:10:07.191Z,27.99
2019-06-20T15:12:36.791Z,28.51
2019-06-20T15:15:03.787Z,28.90
2019-06-20T15:17:30.495Z,29.12
2019-06-20T15:19:57.497Z,28.88
2019-06-20T15:22:24.208Z,29.28
2019-06-20T15:24:53.407Z,29.29
2019-06-20T15:27:19.664Z,29.43
2019-06-20T15:29:47.700Z,29.51
2019-06-20T15:32:15.036Z,29.69
2019-06-20T15:34:42.143Z,29.26
2019-06-20T15:37:08.820Z,29.21
2019-06-20T15:39:35.565Z,29.23
2019-06-20T15:42:02.343Z,29.69
2019-06-20T15:44:29.393Z,30.11
2019-06-20T15:46:56.091Z,30.39
2019-06-20T15:49:25.835Z,30.41
2019-06-20T15:51:52.583Z,30.50
2019-06-20T15:54:19.744Z,30.12
2019-06-20T15:56:46.447Z,30.16
2019-06-20T15:59:13.209Z,30.39
2019-06-20T16:01:39.929Z,30.07
2019-06-20T16:04:06.671Z,30.27
2019-06-20T16:06:34.159Z,29.87
2019-06-20T16:09:00.897Z,29.00
2019-06-20T16:11:27.599Z,28.61
2019-06-20T16:13:54.327Z,28.79
2019-06-20T16:16:21.322Z,29.16
2019-06-20T16:18:48.320Z,28.92
2019-06-20T16:21:15.392Z,28.60
2019-06-20T16:23:42.218Z,28.89
2019-06-20T16:26:08.966Z,29.02
2019-06-20T16:28:35.665Z,29.67
2019-06-20T16:31:10.084Z,29.80
2019-06-20T16:33:32.223Z,29.94
2019-06-20T16:35:58.993Z,29.90
2019-06-20T16:38:25.697Z,30.13
2019-06-20T16:40:52.440Z,30.20
2019-06-20T16:43:19.188Z,30.17
2019-06-20T16:45:45.893Z,29.82
2019-06-20T16:48:12.645Z,29.56
2019-06-20T16:50:39.554Z,29.34
2019-06-20T16:53:06.355Z,29.20
2019-06-20T16:55:33.123Z,29.01
2019-06-20T16:57:59.800Z,28.51
2019-06-20T17:00:26.527Z,28.32
2019-06-20T17:02:53.241Z,28.64
2019-06-20T17:05:20.055Z,28.76
2019-06-20T17:07:49.944Z,29.15
2019-06-20T17:10:18.580Z,29.26
2019-06-20T17:12:45.416Z,28.91
2019-06-20T17:15:12.362Z,28.54
2019-06-20T17:17:39.134Z,28.25
2019-06-20T17:20:05.896Z,27.66
2019-06-20T17:22:32.987Z,27.31
2019-06-20T17:24:59.697Z,27.29
2019-06-20T17:27:26.378Z,27.05
2019-06-20T17:29:53.150Z,26.75
2019-06-20T17:32:19.984Z,26.56
2019-06-20T17:34:46.839Z,26.45
2019-06-20T17:37:13.556Z,26.36
2019-06-20T17:39:40.285Z,26.43
2019-06-20T17:42:08.958Z,26.49
2019-06-20T17:44:37.142Z,26.50
2019-06-20T17:47:03.843Z,26.50
2019-06-20T17:49:33.386Z,26.21
2019-06-20T17:52:00.123Z,26.02
2019-06-20T17:54:26.847Z,25.75
2019-06-20T17:56:54.098Z,25.75
2019-06-20T17:59:22.850Z,25.66
2019-06-20T18:01:49.543Z,25.65
2019-06-20T18:04:16.483Z,25.72
2019-06-20T18:06:43.246Z,25.78
2019-06-20T18:09:10.085Z,25.55
2019-06-20T18:11:37.004Z,25.18
2019-06-20T18:14:04.008Z,25.35
2019-06-20T18:16:30.759Z,25.37
2019-06-20T18:18:57.795Z,25.41
2019-06-20T18:21:24.632Z,25.35
2019-06-20T18:23:51.413Z,25.37
2019-06-20T18:26:18.166Z,25.40
2019-06-20T18:28:44.911Z,25.34
2019-06-20T18:31:11.665Z,25.13
2019-06-20T18:33:38.405Z,25.03
2019-06-20T18:36:05.182Z,24.78
2019-06-20T18:38:31.852Z,24.47
2019-06-20T18:40:58.563Z,24.13
2019-06-20T18:43:25.470Z,24.15
2019-06-20T18:45:52.158Z,24.33
2019-06-20T18:48:18.922Z,24.39
2019-06-20T18:50:47.097Z,24.33
2019-06-20T18:53:14.524Z,24.32
2019-06-20T18:55:41.242Z,23.98
2019-06-20T18:58:08.027Z,24.14
2019-06-20T19:00:35.339Z,24.19
2019-06-20T19:03:02.425Z,24.26
2019-06-20T19:05:29.698Z,24.26
2019-06-20T19:07:57.274Z,24.14
2019-06-20T19:10:24.033Z,24.14
2019-06-20T19:12:50.735Z,23.97
2019-06-20T19:15:17.467Z,23.93
2019-06-20T19:17:44.167Z,23.68
2019-06-20T19:20:11.141Z,23.71
2019-06-20T19:22:37.855Z,23.90
2019-06-20T19:25:04.841Z,23.87
2019-06-20T19:27:45.019Z,23.92
2019-06-20T19:30:00.258Z,23.86
2019-06-20T19:32:27.156Z,23.91
2019-06-20T19:35:02.081Z,23.74
2019-06-20T19:37:22.529Z,23.76
2019-06-20T19:39:49.885Z,23.71
2019-06-20T19:42:20.664Z,23.49
2019-06-20T19:44:47.663Z,23.37
2019-06-20T19:47:17.368Z,23.46
2019-06-20T19:49:44.086Z,23.45
2019-06-20T19:52:10.896Z,23.28
2019-06-20T19:54:37.647Z,23.31
2019-06-20T19:57:04.327Z,23.26
2019-06-20T19:59:31.060Z,23.21
2019-06-20T20:01:57.795Z,23.19
2019-06-20T20:04:26.444Z,23.14
2019-06-20T20:06:53.912Z,23.10
2019-06-20T20:09:20.668Z,23.05
2019-06-20T20:11:47.489Z,22.98
2019-06-20T20:14:14.254Z,22.94
2019-06-20T20:16:43.991Z,22.49
2019-06-20T20:19:12.915Z,22.26
2019-06-20T20:21:39.627Z,22.26
2019-06-20T20:24:07.113Z,22.34
2019-06-20T20:26:34.167Z,22.17
2019-06-20T20:29:01.000Z,22.10
2019-06-20T20:31:27.883Z,22.06
2019-06-20T20:33:54.659Z,22.33
2019-06-20T20:36:25.198Z,22.53
2019-06-20T20:38:50.346Z,22.64
2019-06-20T20:41:17.808Z,22.73
2019-06-20T20:43:44.546Z,22.61
2019-06-20T20:46:11.595Z,22.48
2019-06-20T20:48:38.309Z,22.45
2019-06-20T20:51:05.052Z,22.49
2019-06-20T20:53:31.860Z,22.52
2019-06-20T20:56:02.304Z,22.54
2019-06-20T20:58:29.778Z,22.15
2019-06-20T21:01:16.436Z,21.84
2019-06-20T21:03:43.235Z,21.67
2019-06-20T21:06:09.950Z,21.61
2019-06-20T21:08:36.692Z,21.53
2019-06-20T21:11:03.447Z,21.61
2019-06-20T21:13:30.164Z,21.74
2019-06-20T21:15:57.302Z,21.84
2019-06-20T21:18:24.372Z,21.88
2019-06-20T21:20:51.064Z,22.00
2019-06-20T21:23:17.796Z,21.92
2019-06-20T21:25:44.521Z,21.73
2019-06-20T21:28:11.257Z,21.55
2019-06-20T21:30:37.959Z,21.39
2019-06-20T21:33:04.714Z,21.32
2019-06-20T21:35:31.476Z,21.34
2019-06-20T21:37:58.252Z,21.42
2019-06-20T21:40:25.108Z,21.59
2019-06-20T21:42:53.870Z,21.66
2019-06-20T21:45:20.589Z,21.73
2019-06-20T21:47:47.318Z,21.67
2019-06-20T21:50:14.086Z,21.54
2019-06-20T21:52:40.797Z,21.47
2019-06-20T21:55:07.519Z,21.46
2019-06-20T21:57:34.238Z,21.41
2019-06-20T22:00:01.415Z,21.35
2019-06-20T22:02:28.679Z,21.24
2019-06-20T22:04:55.466Z,21.22
2019-06-20T22:07:22.237Z,21.13
2019-06-20T22:09:49.067Z,21.13
2019-06-20T22:12:15.779Z,21.18
2019-06-20T22:14:42.520Z,21.17
2019-06-20T22:17:09.278Z,21.19
2019-06-20T22:19:36.117Z,21.30
2019-06-20T22:22:05.572Z,21.31
2019-06-20T22:24:34.014Z,21.22
2019-06-20T22:27:00.718Z,21.07
2019-06-20T22:29:27.775Z,21.09
2019-06-20T22:31:54.510Z,21.21
2019-06-20T22:34:21.253Z,21.10
2019-06-20T22:36:48.925Z,21.13
2019-06-20T22:39:15.658Z,21.13
2019-06-20T22:41:42.806Z,21.17
2019-06-20T22:44:09.521Z,21.10
2019-06-20T22:46:36.268Z,21.06
2019-06-20T22:49:03.064Z,21.01
2019-06-20T22:51:29.925Z,20.94
2019-06-20T22:53:57.092Z,20.86
2019-06-20T22:56:23.810Z,20.74
2019-06-20T22:58:50.526Z,20.72
2019-06-20T23:01:17.298Z,20.71
2019-06-20T23:03:44.131Z,20.80
2019-06-20T23:06:10.957Z,20.79
2019-06-20T23:08:38.032Z,20.69
2019-06-20T23:11:04.769Z,20.67
2019-06-20T23:13:31.504Z,20.63
2019-06-20T23:15:58.253Z,20.58
2019-06-20T23:18:24.993Z,20.52
2019-06-20T23:21:04.262Z,20.53
2019-06-20T23:23:20.653Z,20.43
2019-06-20T23:25:50.150Z,20.49
2019-06-20T23:28:16.868Z,20.61
2019-06-20T23:30:43.612Z,20.65
2019-06-20T23:33:10.424Z,20.61
2019-06-20T23:35:37.168Z,20.55
2019-06-20T23:38:03.901Z,20.51
2019-06-20T23:40:30.677Z,20.46
2019-06-20T23:42:57.380Z,20.43
2019-06-20T23:45:24.184Z,20.29
2019-06-20T23:47:51.369Z,19.98
2019-06-20T23:50:18.094Z,19.87
2019-06-20T23:52:47.901Z,19.77
2019-06-20T23:55:14.670Z,20.00
2019-06-20T23:57:41.363Z,20.18
